createdAt,value
2023-05-08T00:02:44.560Z,5.82
2023-05-08T00:06:51.750Z,5.60
2023-05-08T00:10:54.837Z,6.45
2023-05-08T00:14:58.439Z,5.65
2023-05-08T00:19:02.378Z,6.18
2023-05-08T00:23:06.866Z,5.43
2023-05-08T00:27:10.125Z,7.35
2023-05-08T00:31:14.372Z,7.13
2023-05-08T00:35:17.776Z,6.63
2023-05-08T00:39:22.765Z,5.30
2023-05-08T00:43:28.581Z,6.68
2023-05-08T00:47:33.554Z,6.65
2023-05-08T00:51:37.206Z,6.00
2023-05-08T00:55:42.420Z,6.63
2023-05-08T00:59:47.816Z,6.50
2023-05-08T01:03:52.000Z,6.28
2023-05-08T01:07:55.412Z,6.68
2023-05-08T01:12:10.310Z,6.05
2023-05-08T01:16:17.752Z,5.80
2023-05-08T01:20:31.784Z,7.65
2023-05-08T01:25:06.463Z,6.20
2023-05-08T01:29:45.571Z,6.57
2023-05-08T01:33:57.019Z,5.57
2023-05-08T01:38:09.959Z,6.03
2023-05-08T01:46:27.515Z,6.57
2023-05-08T01:50:38.384Z,6.13
2023-05-08T01:54:48.297Z,6.20
2023-05-08T01:58:54.581Z,6.63
2023-05-08T02:02:59.230Z,6.13
2023-05-08T02:07:05.277Z,6.57
2023-05-08T02:11:09.798Z,6.10
2023-05-08T02:15:15.523Z,6.05
2023-05-08T02:19:20.620Z,5.78
2023-05-08T02:23:28.458Z,6.35
2023-05-08T02:27:35.572Z,7.13
2023-05-08T02:31:40.613Z,6.05
2023-05-08T02:35:46.530Z,5.57
2023-05-08T02:39:55.487Z,6.05
2023-05-08T02:43:59.637Z,5.30
2023-05-08T02:48:12.623Z,4.72
2023-05-08T02:56:36.355Z,5.20
2023-05-08T03:00:45.720Z,5.53
2023-05-08T03:04:55.260Z,5.53
2023-05-08T03:09:04.821Z,5.45
2023-05-08T03:13:12.184Z,5.45
2023-05-08T03:17:19.744Z,6.05
2023-05-08T03:21:27.488Z,5.88
2023-05-08T03:25:34.380Z,6.05
2023-05-08T03:29:41.161Z,6.25
2023-05-08T03:33:46.089Z,5.88
2023-05-08T03:37:49.664Z,5.10
2023-05-08T03:41:53.115Z,6.18
2023-05-08T03:46:00.455Z,4.82
2023-05-08T03:50:05.086Z,5.68
2023-05-08T03:54:08.274Z,6.03
2023-05-08T03:58:21.835Z,4.70
2023-05-08T04:02:34.938Z,5.28
2023-05-08T04:06:50.084Z,4.20
2023-05-08T04:11:04.832Z,4.47
2023-05-08T04:15:12.860Z,5.18
2023-05-08T04:19:23.212Z,4.35
2023-05-08T04:23:27.643Z,5.25
2023-05-08T04:27:31.840Z,4.55
2023-05-08T04:31:38.137Z,4.93
2023-05-08T04:35:42.678Z,6.32
2023-05-08T04:39:46.328Z,6.63
2023-05-08T04:43:50.838Z,5.53
2023-05-08T04:47:54.196Z,5.60
2023-05-08T04:51:58.976Z,5.72
2023-05-08T04:56:03.664Z,5.10
2023-05-08T05:00:11.325Z,6.78
2023-05-08T05:04:14.648Z,6.28
2023-05-08T05:08:19.301Z,6.32
2023-05-08T05:12:23.065Z,7.05
2023-05-08T05:16:26.689Z,6.80
2023-05-08T05:20:30.182Z,6.00
2023-05-08T05:24:36.550Z,6.07
2023-05-08T05:28:40.332Z,6.57
2023-05-08T05:32:44.269Z,7.00
2023-05-08T05:36:47.467Z,6.38
2023-05-08T05:40:52.486Z,7.70
2023-05-08T05:44:56.836Z,6.78
2023-05-08T05:49:00.330Z,7.32
2023-05-08T05:53:03.807Z,5.78
2023-05-08T05:57:09.197Z,5.55
2023-05-08T06:01:13.452Z,6.30
2023-05-08T06:05:17.135Z,6.47
2023-05-08T06:09:20.845Z,7.30
2023-05-08T06:13:26.174Z,5.55
2023-05-08T06:17:29.733Z,6.28
2023-05-08T06:21:33.158Z,7.00
2023-05-08T06:25:36.728Z,6.65
2023-05-08T06:29:41.629Z,6.07
2023-05-08T06:33:45.145Z,6.78
2023-05-08T06:37:48.659Z,5.90
2023-05-08T06:41:52.048Z,6.90
2023-05-08T06:45:56.650Z,5.93
2023-05-08T06:50:00.169Z,5.88
2023-05-08T06:54:05.833Z,5.78
2023-05-08T06:58:09.539Z,5.60
2023-05-08T07:02:16.606Z,6.68
2023-05-08T07:06:20.011Z,6.07
2023-05-08T07:10:23.871Z,6.03
2023-05-08T07:14:27.477Z,6.07
2023-05-08T07:18:32.612Z,6.95
2023-05-08T07:22:35.981Z,6.25
2023-05-08T07:26:39.688Z,5.65
2023-05-08T07:30:42.907Z,6.78
2023-05-08T07:34:48.820Z,5.22
2023-05-08T07:38:52.561Z,5.15
2023-05-08T07:42:57.550Z,6.38
2023-05-08T07:47:01.448Z,5.57
2023-05-08T07:51:07.078Z,5.90
2023-05-08T07:55:11.260Z,5.03
2023-05-08T07:59:14.958Z,7.00
2023-05-08T08:03:18.589Z,5.65
2023-05-08T08:07:23.387Z,5.55
2023-05-08T08:11:27.154Z,5.50
2023-05-08T08:15:30.618Z,5.18
2023-05-08T08:19:34.334Z,6.13
2023-05-08T08:23:39.801Z,6.25
2023-05-08T08:27:43.029Z,6.40
2023-05-08T08:31:46.793Z,4.95
2023-05-08T08:35:50.651Z,7.03
2023-05-08T08:39:56.377Z,6.95
2023-05-08T08:44:01.125Z,6.03
2023-05-08T08:48:06.882Z,6.47
2023-05-08T08:52:18.155Z,4.80
2023-05-08T08:56:25.009Z,6.78
2023-05-08T09:00:32.065Z,5.53
2023-05-08T09:04:35.649Z,5.32
2023-05-08T09:08:39.674Z,6.82
2023-05-08T09:12:45.378Z,6.43
2023-05-08T09:16:49.156Z,4.78
2023-05-08T09:20:52.561Z,5.65
2023-05-08T09:24:59.038Z,4.30
2023-05-08T09:29:18.528Z,6.43
2023-05-08T09:33:22.844Z,5.80
2023-05-08T09:37:27.590Z,6.32
2023-05-08T09:41:31.365Z,6.97
2023-05-08T09:45:39.113Z,6.72
2023-05-08T09:49:57.374Z,5.55
2023-05-08T09:54:04.344Z,5.15
2023-05-08T09:58:07.930Z,5.53
2023-05-08T10:02:17.708Z,5.38
2023-05-08T10:06:22.384Z,5.68
2023-05-08T10:10:29.422Z,5.50
2023-05-08T10:14:32.803Z,6.50
2023-05-08T10:18:41.025Z,5.57
2023-05-08T10:22:45.923Z,5.07
2023-05-08T10:27:07.037Z,5.95
2023-05-08T10:31:14.175Z,5.55
2023-05-08T10:35:20.604Z,6.38
2023-05-08T10:39:25.424Z,5.88
2023-05-08T10:43:31.315Z,5.72
2023-05-08T10:47:46.727Z,5.70
2023-05-08T10:52:01.450Z,4.93
2023-05-08T10:56:04.839Z,6.13
2023-05-08T11:00:09.355Z,6.15
2023-05-08T11:04:21.924Z,6.03
2023-05-08T11:08:28.960Z,5.97
2023-05-08T11:12:34.132Z,7.35
2023-05-08T11:17:07.021Z,6.50
2023-05-08T11:25:45.003Z,6.00
2023-05-08T11:30:25.905Z,6.60
2023-05-08T11:34:53.126Z,6.05
2023-05-08T11:39:12.763Z,5.90
2023-05-08T11:43:45.062Z,6.28
2023-05-08T11:47:48.391Z,6.47
2023-05-08T11:51:55.321Z,6.07
2023-05-08T11:55:59.978Z,6.10
2023-05-08T12:00:09.915Z,6.75
2023-05-08T12:04:15.014Z,7.00
2023-05-08T12:08:21.195Z,6.57
2023-05-08T12:12:24.453Z,6.20
2023-05-08T12:16:29.168Z,6.63
2023-05-08T12:20:33.924Z,6.30
2023-05-08T12:24:37.742Z,6.47
2023-05-08T12:28:42.896Z,5.90
2023-05-08T12:32:48.634Z,5.22
2023-05-08T12:37:03.644Z,6.00
2023-05-08T12:41:09.136Z,6.45
2023-05-08T12:45:19.173Z,7.18
2023-05-08T12:49:29.208Z,5.38
2023-05-08T12:53:34.224Z,5.82
2023-05-08T12:57:38.906Z,4.80
2023-05-08T13:01:42.398Z,5.22
2023-05-08T13:05:47.735Z,5.40
2023-05-08T13:10:03.724Z,5.15
2023-05-08T13:14:07.519Z,5.38
2023-05-08T13:18:11.110Z,5.43
2023-05-08T13:22:15.825Z,5.20
2023-05-08T13:26:19.472Z,4.55
2023-05-08T13:30:24.353Z,4.90
2023-05-08T13:34:27.618Z,4.90
2023-05-08T13:38:35.015Z,5.28
2023-05-08T13:42:38.260Z,4.63
2023-05-08T13:46:41.950Z,5.43
2023-05-08T13:50:45.219Z,5.28
2023-05-08T13:54:50.386Z,6.03
2023-05-08T13:58:54.450Z,6.15
2023-05-08T14:02:58.189Z,4.68
2023-05-08T14:07:01.848Z,5.07
2023-05-08T14:11:06.962Z,5.05
2023-05-08T14:15:12.242Z,4.25
2023-05-08T14:19:16.563Z,4.53
2023-05-08T14:23:20.342Z,5.47
2023-05-08T14:27:25.780Z,4.93
2023-05-08T14:31:29.091Z,5.72
2023-05-08T14:35:33.288Z,5.65
2023-05-08T14:39:36.589Z,5.72
2023-05-08T14:43:42.990Z,6.20
2023-05-08T14:47:46.633Z,5.45
2023-05-08T14:51:52.294Z,5.90
2023-05-08T14:55:56.351Z,5.75
2023-05-08T15:00:01.510Z,5.18
2023-05-08T15:04:04.649Z,6.05
2023-05-08T15:08:09.008Z,6.32
2023-05-08T15:12:12.082Z,4.90
2023-05-08T15:16:17.123Z,5.95
2023-05-08T15:20:21.150Z,5.43
2023-05-08T15:24:25.477Z,4.55
2023-05-08T15:28:29.228Z,5.20
2023-05-08T15:32:35.173Z,4.70
2023-05-08T15:36:38.472Z,4.45
2023-05-08T15:40:42.010Z,4.82
2023-05-08T15:48:53.071Z,5.25
2023-05-08T15:52:55.951Z,4.82
2023-05-08T15:56:59.168Z,4.03
2023-05-08T16:01:02.647Z,4.00
2023-05-08T16:05:08.746Z,5.22
2023-05-08T16:09:11.849Z,4.55
2023-05-08T16:13:15.427Z,4.43
2023-05-08T16:17:18.663Z,4.22
2023-05-08T16:21:23.521Z,4.25
2023-05-08T16:25:27.735Z,4.57
2023-05-08T16:29:31.161Z,4.45
2023-05-08T16:33:34.316Z,4.20
2023-05-08T16:37:43.637Z,3.90
2023-05-08T16:49:55.562Z,4.07
2023-05-08T16:54:00.219Z,4.20
2023-05-08T16:58:04.635Z,3.67
2023-05-08T17:02:09.132Z,3.28
2023-05-08T17:06:12.466Z,4.20
2023-05-08T17:10:17.730Z,4.63
2023-05-08T17:14:21.055Z,3.35
2023-05-08T17:18:25.039Z,3.53
2023-05-08T17:22:30.843Z,4.40
2023-05-08T17:26:35.649Z,2.90
2023-05-08T17:30:38.890Z,3.90
2023-05-08T17:34:42.484Z,2.63
2023-05-08T17:38:46.595Z,3.13
2023-05-08T17:42:51.802Z,3.38
2023-05-08T17:46:55.723Z,2.85
2023-05-08T17:51:00.493Z,2.67
2023-05-08T17:55:04.057Z,2.03
2023-05-08T17:59:09.466Z,2.42
2023-05-08T18:03:12.934Z,2.00
2023-05-08T18:07:16.819Z,2.63
2023-05-08T18:11:21.592Z,2.15
2023-05-08T18:15:26.727Z,2.00
2023-05-08T18:19:30.596Z,2.15
2023-05-08T18:23:33.731Z,2.00
2023-05-08T18:27:37.494Z,1.85
2023-05-08T18:31:42.236Z,1.92
2023-05-08T18:35:46.100Z,2.17
2023-05-08T18:39:49.434Z,3.55
2023-05-08T18:43:53.148Z,1.60
2023-05-08T18:47:58.210Z,1.90
2023-05-08T18:52:01.746Z,1.83
2023-05-08T18:56:05.582Z,2.08
2023-05-08T19:00:10.721Z,1.52
2023-05-08T19:04:15.733Z,2.10
2023-05-08T19:08:19.522Z,2.05
2023-05-08T19:12:23.477Z,1.67
2023-05-08T19:16:28.999Z,1.50
2023-05-08T19:20:34.821Z,2.00
2023-05-08T19:24:38.347Z,1.75
2023-05-08T19:28:42.315Z,1.75
2023-05-08T19:32:47.795Z,1.63
2023-05-08T19:36:52.910Z,2.22
2023-05-08T19:40:58.146Z,2.33
2023-05-08T19:45:01.919Z,1.50
2023-05-08T19:49:05.692Z,2.00
2023-05-08T19:53:11.627Z,1.85
2023-05-08T19:57:15.766Z,1.75
2023-05-08T20:01:19.499Z,1.83
2023-05-08T20:05:23.667Z,1.75
2023-05-08T20:09:28.406Z,1.85
2023-05-08T20:13:33.307Z,2.10
2023-05-08T20:17:37.021Z,1.92
2023-05-08T20:21:41.448Z,2.00
2023-05-08T20:25:47.929Z,1.73
2023-05-08T20:29:51.520Z,1.42
2023-05-08T20:33:55.242Z,1.13
2023-05-08T20:37:58.819Z,2.05
2023-05-08T20:42:04.234Z,1.52
2023-05-08T20:46:07.736Z,2.33
2023-05-08T20:50:12.417Z,1.40
2023-05-08T20:54:16.396Z,1.70
2023-05-08T20:58:22.944Z,1.77
2023-05-08T21:02:26.284Z,2.38
2023-05-08T21:06:30.779Z,1.90
2023-05-08T21:10:34.321Z,2.38
2023-05-08T21:14:39.734Z,1.92
2023-05-08T21:18:43.243Z,2.25
2023-05-08T21:22:47.795Z,2.05
2023-05-08T21:26:50.930Z,2.20
2023-05-08T21:30:56.548Z,1.48
2023-05-08T21:34:59.848Z,1.67
2023-05-08T21:39:03.935Z,1.67
2023-05-08T21:43:07.703Z,2.00
2023-05-08T21:47:12.941Z,1.63
2023-05-08T21:51:16.099Z,1.90
2023-05-08T21:55:20.368Z,1.52
2023-05-08T21:59:23.341Z,1.95
2023-05-08T22:03:28.521Z,2.28
2023-05-08T22:07:31.765Z,2.30
2023-05-08T22:11:35.688Z,2.00
2023-05-08T22:15:38.983Z,2.65
2023-05-08T22:19:43.681Z,1.58
2023-05-08T22:23:47.132Z,1.70
2023-05-08T22:27:51.140Z,2.25
2023-05-08T22:31:54.398Z,1.08
2023-05-08T22:35:59.868Z,1.42
2023-05-08T22:40:03.397Z,1.35
2023-05-08T22:44:07.331Z,1.55
2023-05-08T22:48:10.571Z,1.85
2023-05-08T22:52:15.669Z,1.60
2023-05-08T22:56:19.159Z,1.85
2023-05-08T23:00:23.702Z,2.20
2023-05-08T23:04:27.099Z,2.17
2023-05-08T23:08:32.597Z,2.55
2023-05-08T23:12:35.633Z,1.50
2023-05-08T23:16:39.552Z,1.90
2023-05-08T23:20:42.719Z,2.45
2023-05-08T23:24:48.027Z,1.55
2023-05-08T23:28:51.219Z,2.25
2023-05-08T23:32:55.265Z,1.83
2023-05-08T23:36:58.746Z,1.67
2023-05-08T23:41:04.100Z,2.13
2023-05-08T23:45:08.971Z,2.15
2023-05-08T23:49:12.990Z,1.88
2023-05-08T23:53:16.721Z,1.85
2023-05-08T23:57:22.129Z,2.08
